Seabrook, New Hampshire
Current Conditions -  °F | °C
As of 1:58 PM on Thursday 30 Oct 2014 (Local Time) from KPSM Reporting Station
Broken Clouds Broken Clouds  
Wind Chill: 57°   Ceiling: 8000
Heat Index: 57°   Visibility: 10mi
Dew Point: 38°   Wind: 9mph
Humidity: 50%   Direction: 330°NNW
Pressure: 29.89"   Gusts: NA
Location:  42.89°N, 70.87°W
Report Text: KPSM 301758Z 33008KT 10SM SCT040 BKN080 14/04 A2989 RMK AO2A SLP125 T01380036 10149 20067 55008
Loading
Personal Weather Stations






























Interactive Weather Map
Tropical Storm Tracking
New forecast layout! Learn more

10-Day Weather Forecast

Advertisements
Track Severe Weather on mobile